sensor_id;sensor_type;location;lat;lon;timestamp;P1;durP1;ratioP1;P2;durP2;ratioP2
1174;SDS011;576;48.418;10.074;2022-10-10T00:01:10;2.73;;;2.53;;
1174;SDS011;576;48.418;10.074;2022-10-10T00:03:38;2.73;;;2.53;;
1174;SDS011;576;48.418;10.074;2022-10-10T00:06:07;2.47;;;2.27;;
1174;SDS011;576;48.418;10.074;2022-10-10T00:08:36;2.50;;;2.30;;
1174;SDS011;576;48.418;10.074;2022-10-10T00:11:05;2.90;;;2.70;;
1174;SDS011;576;48.418;10.074;2022-10-10T00:13:34;4.03;;;2.80;;
1174;SDS011;576;48.418;10.074;2022-10-10T00:16:02;3.20;;;3.00;;
1174;SDS011;576;48.418;10.074;2022-10-10T00:18:31;2.60;;;2.10;;
1174;SDS011;576;48.418;10.074;2022-10-10T00:20:59;3.20;;;2.90;;
1174;SDS011;576;48.418;10.074;2022-10-10T00:23:27;2.67;;;2.43;;
1174;SDS011;576;48.418;10.074;2022-10-10T00:25:56;2.30;;;2.20;;
1174;SDS011;576;48.418;10.074;2022-10-10T00:28:25;2.60;;;2.40;;
1174;SDS011;576;48.418;10.074;2022-10-10T00:30:54;2.60;;;2.40;;
1174;SDS011;576;48.418;10.074;2022-10-10T00:33:22;2.70;;;2.50;;
1174;SDS011;576;48.418;10.074;2022-10-10T00:35:50;2.77;;;2.53;;
1174;SDS011;576;48.418;10.074;2022-10-10T00:38:18;3.70;;;2.63;;
1174;SDS011;576;48.418;10.074;2022-10-10T00:40:46;2.60;;;2.40;;
1174;SDS011;576;48.418;10.074;2022-10-10T00:43:16;2.83;;;2.50;;
1174;SDS011;576;48.418;10.074;2022-10-10T00:45:47;2.47;;;2.27;;
1174;SDS011;576;48.418;10.074;2022-10-10T00:48:17;3.60;;;2.30;;
1174;SDS011;576;48.418;10.074;2022-10-10T00:50:47;3.00;;;2.80;;
1174;SDS011;576;48.418;10.074;2022-10-10T00:53:22;3.00;;;2.70;;
1174;SDS011;576;48.418;10.074;2022-10-10T00:55:53;2.93;;;2.73;;
1174;SDS011;576;48.418;10.074;2022-10-10T00:58:22;2.93;;;2.73;;
1174;SDS011;576;48.418;10.074;2022-10-10T01:00:52;2.80;;;2.60;;
1174;SDS011;576;48.418;10.074;2022-10-10T01:03:21;2.63;;;2.40;;
1174;SDS011;576;48.418;10.074;2022-10-10T01:05:49;2.97;;;2.77;;
1174;SDS011;576;48.418;10.074;2022-10-10T01:08:20;2.50;;;2.40;;
1174;SDS011;576;48.418;10.074;2022-10-10T01:10:54;2.63;;;2.50;;
1174;SDS011;576;48.418;10.074;2022-10-10T01:13:34;3.67;;;2.80;;
1174;SDS011;576;48.418;10.074;2022-10-10T01:16:13;4.83;;;3.20;;
1174;SDS011;576;48.418;10.074;2022-10-10T01:18:48;3.00;;;2.80;;
1174;SDS011;576;48.418;10.074;2022-10-10T01:21:25;2.60;;;2.37;;
1174;SDS011;576;48.418;10.074;2022-10-10T01:24:10;3.93;;;2.30;;
1174;SDS011;576;48.418;10.074;2022-10-10T01:27:06;3.27;;;2.97;;
1174;SDS011;576;48.418;10.074;2022-10-10T01:29:46;2.60;;;2.40;;
1174;SDS011;576;48.418;10.074;2022-10-10T01:32:19;2.60;;;2.40;;
1174;SDS011;576;48.418;10.074;2022-10-10T01:34:55;2.20;;;2.10;;
1174;SDS011;576;48.418;10.074;2022-10-10T01:37:36;2.33;;;2.17;;
1174;SDS011;576;48.418;10.074;2022-10-10T01:40:16;2.60;;;2.40;;
1174;SDS011;576;48.418;10.074;2022-10-10T01:42:53;2.73;;;2.53;;
1174;SDS011;576;48.418;10.074;2022-10-10T01:45:24;2.83;;;2.63;;
1174;SDS011;576;48.418;10.074;2022-10-10T01:47:53;2.53;;;2.43;;
1174;SDS011;576;48.418;10.074;2022-10-10T01:50:23;2.37;;;2.17;;
1174;SDS011;576;48.418;10.074;2022-10-10T01:52:56;3.10;;;2.90;;
1174;SDS011;576;48.418;10.074;2022-10-10T01:55:38;2.60;;;2.40;;
1174;SDS011;576;48.418;10.074;2022-10-10T01:58:21;2.97;;;2.77;;
1174;SDS011;576;48.418;10.074;2022-10-10T02:01:09;2.60;;;2.50;;
1174;SDS011;576;48.418;10.074;2022-10-10T02:03:43;2.70;;;2.50;;
1174;SDS011;576;48.418;10.074;2022-10-10T02:06:18;2.30;;;2.20;;
1174;SDS011;576;48.418;10.074;2022-10-10T02:08:52;3.27;;;2.97;;
1174;SDS011;576;48.418;10.074;2022-10-10T02:11:25;2.67;;;2.47;;
1174;SDS011;576;48.418;10.074;2022-10-10T02:13:55;4.43;;;2.23;;
1174;SDS011;576;48.418;10.074;2022-10-10T02:16:30;3.00;;;2.80;;
1174;SDS011;576;48.418;10.074;2022-10-10T02:19:04;2.97;;;2.77;;
1174;SDS011;576;48.418;10.074;2022-10-10T02:21:35;2.67;;;2.57;;
1174;SDS011;576;48.418;10.074;2022-10-10T02:24:04;2.50;;;2.30;;
1174;SDS011;576;48.418;10.074;2022-10-10T02:26:34;2.30;;;2.10;;
1174;SDS011;576;48.418;10.074;2022-10-10T02:29:05;3.10;;;2.70;;
1174;SDS011;576;48.418;10.074;2022-10-10T02:31:40;3.03;;;2.70;;
1174;SDS011;576;48.418;10.074;2022-10-10T02:34:12;2.60;;;2.50;;
1174;SDS011;576;48.418;10.074;2022-10-10T02:36:43;2.90;;;2.73;;
1174;SDS011;576;48.418;10.074;2022-10-10T02:39:15;2.57;;;2.47;;
1174;SDS011;576;48.418;10.074;2022-10-10T02:41:45;3.10;;;2.90;;
1174;SDS011;576;48.418;10.074;2022-10-10T02:44:15;2.53;;;2.33;;
1174;SDS011;576;48.418;10.074;2022-10-10T02:46:45;2.10;;;2.00;;
1174;SDS011;576;48.418;10.074;2022-10-10T02:49:14;2.67;;;2.47;;
1174;SDS011;576;48.418;10.074;2022-10-10T02:51:52;2.40;;;2.30;;
1174;SDS011;576;48.418;10.074;2022-10-10T02:54:20;2.57;;;2.37;;
1174;SDS011;576;48.418;10.074;2022-10-10T02:56:48;2.60;;;2.50;;
1174;SDS011;576;48.418;10.074;2022-10-10T02:59:16;2.20;;;2.10;;
1174;SDS011;576;48.418;10.074;2022-10-10T03:01:46;2.93;;;2.73;;
1174;SDS011;576;48.418;10.074;2022-10-10T03:04:14;2.60;;;2.40;;
1174;SDS011;576;48.418;10.074;2022-10-10T03:06:43;3.07;;;2.77;;
1174;SDS011;576;48.418;10.074;2022-10-10T03:09:11;2.83;;;2.67;;
1174;SDS011;576;48.418;10.074;2022-10-10T03:11:39;3.20;;;3.00;;
1174;SDS011;576;48.418;10.074;2022-10-10T03:14:08;3.03;;;2.83;;
1174;SDS011;576;48.418;10.074;2022-10-10T03:16:36;2.67;;;2.57;;
1174;SDS011;576;48.418;10.074;2022-10-10T03:19:05;3.27;;;3.07;;
1174;SDS011;576;48.418;10.074;2022-10-10T03:21:34;2.80;;;2.60;;
1174;SDS011;576;48.418;10.074;2022-10-10T03:24:02;2.87;;;2.67;;
1174;SDS011;576;48.418;10.074;2022-10-10T03:26:31;2.77;;;2.67;;
1174;SDS011;576;48.418;10.074;2022-10-10T03:29:00;2.20;;;2.10;;
1174;SDS011;576;48.418;10.074;2022-10-10T03:31:28;3.03;;;2.87;;
1174;SDS011;576;48.418;10.074;2022-10-10T03:33:56;2.63;;;2.43;;
1174;SDS011;576;48.418;10.074;2022-10-10T03:36:27;2.93;;;2.73;;
1174;SDS011;576;48.418;10.074;2022-10-10T03:38:56;2.77;;;2.57;;
1174;SDS011;576;48.418;10.074;2022-10-10T03:41:24;3.00;;;2.80;;
1174;SDS011;576;48.418;10.074;2022-10-10T03:43:52;2.90;;;2.70;;
1174;SDS011;576;48.418;10.074;2022-10-10T03:46:20;2.57;;;2.47;;
1174;SDS011;576;48.418;10.074;2022-10-10T03:48:48;2.30;;;2.20;;
1174;SDS011;576;48.418;10.074;2022-10-10T03:51:16;2.80;;;2.60;;
1174;SDS011;576;48.418;10.074;2022-10-10T03:53:46;2.90;;;2.70;;
1174;SDS011;576;48.418;10.074;2022-10-10T03:56:14;2.40;;;2.30;;
1174;SDS011;576;48.418;10.074;2022-10-10T03:58:42;2.50;;;2.33;;
1174;SDS011;576;48.418;10.074;2022-10-10T04:01:10;2.53;;;2.43;;
1174;SDS011;576;48.418;10.074;2022-10-10T04:03:38;2.83;;;2.63;;
1174;SDS011;576;48.418;10.074;2022-10-10T04:06:07;3.17;;;2.97;;
1174;SDS011;576;48.418;10.074;2022-10-10T04:08:35;3.00;;;2.80;;
1174;SDS011;576;48.418;10.074;2022-10-10T04:11:04;2.80;;;2.60;;
1174;SDS011;576;48.418;10.074;2022-10-10T04:13:32;2.80;;;2.60;;
1174;SDS011;576;48.418;10.074;2022-10-10T04:16:00;2.90;;;2.70;;
1174;SDS011;576;48.418;10.074;2022-10-10T04:18:29;2.80;;;2.60;;
1174;SDS011;576;48.418;10.074;2022-10-10T04:21:00;4.00;;;3.03;;
1174;SDS011;576;48.418;10.074;2022-10-10T04:23:28;3.00;;;2.80;;
1174;SDS011;576;48.418;10.074;2022-10-10T04:25:56;2.20;;;2.10;;
1174;SDS011;576;48.418;10.074;2022-10-10T04:28:26;2.90;;;2.80;;
1174;SDS011;576;48.418;10.074;2022-10-10T04:30:54;2.67;;;2.47;;
1174;SDS011;576;48.418;10.074;2022-10-10T04:33:22;3.20;;;3.00;;
1174;SDS011;576;48.418;10.074;2022-10-10T04:35:50;2.87;;;2.67;;
1174;SDS011;576;48.418;10.074;2022-10-10T04:38:19;2.60;;;2.50;;
1174;SDS011;576;48.418;10.074;2022-10-10T04:40:48;2.90;;;2.70;;
1174;SDS011;576;48.418;10.074;2022-10-10T04:43:17;3.13;;;2.93;;
1174;SDS011;576;48.418;10.074;2022-10-10T04:45:46;2.50;;;2.40;;
1174;SDS011;576;48.418;10.074;2022-10-10T04:48:14;2.80;;;2.60;;
1174;SDS011;576;48.418;10.074;2022-10-10T04:50:43;3.00;;;2.67;;
1174;SDS011;576;48.418;10.074;2022-10-10T04:53:11;2.10;;;2.00;;
1174;SDS011;576;48.418;10.074;2022-10-10T04:55:39;2.90;;;2.70;;
1174;SDS011;576;48.418;10.074;2022-10-10T04:58:07;2.80;;;2.60;;
1174;SDS011;576;48.418;10.074;2022-10-10T05:00:36;3.07;;;2.87;;
1174;SDS011;576;48.418;10.074;2022-10-10T05:03:06;3.27;;;3.07;;
1174;SDS011;576;48.418;10.074;2022-10-10T05:05:34;3.10;;;2.80;;
1174;SDS011;576;48.418;10.074;2022-10-10T05:08:03;2.73;;;2.53;;
1174;SDS011;576;48.418;10.074;2022-10-10T05:10:34;3.10;;;2.77;;
1174;SDS011;576;48.418;10.074;2022-10-10T05:13:04;3.30;;;2.30;;
1174;SDS011;576;48.418;10.074;2022-10-10T05:15:32;3.60;;;3.33;;
1174;SDS011;576;48.418;10.074;2022-10-10T05:18:01;2.80;;;2.60;;
1174;SDS011;576;48.418;10.074;2022-10-10T05:20:32;3.53;;;2.87;;
1174;SDS011;576;48.418;10.074;2022-10-10T05:23:01;4.30;;;2.73;;
1174;SDS011;576;48.418;10.074;2022-10-10T05:25:30;3.13;;;2.83;;
1174;SDS011;576;48.418;10.074;2022-10-10T05:27:58;5.23;;;3.00;;
1174;SDS011;576;48.418;10.074;2022-10-10T05:30:26;6.97;;;3.00;;
1174;SDS011;576;48.418;10.074;2022-10-10T05:32:54;2.90;;;2.70;;
1174;SDS011;576;48.418;10.074;2022-10-10T05:35:22;4.97;;;3.13;;
1174;SDS011;576;48.418;10.074;2022-10-10T05:37:51;3.10;;;2.80;;
1174;SDS011;576;48.418;10.074;2022-10-10T05:40:19;4.40;;;2.80;;
1174;SDS011;576;48.418;10.074;2022-10-10T05:42:48;3.23;;;2.80;;
1174;SDS011;576;48.418;10.074;2022-10-10T05:45:16;3.70;;;2.87;;
1174;SDS011;576;48.418;10.074;2022-10-10T05:47:45;4.00;;;2.90;;
1174;SDS011;576;48.418;10.074;2022-10-10T05:50:17;6.60;;;3.30;;
1174;SDS011;576;48.418;10.074;2022-10-10T05:52:54;6.90;;;2.93;;
1174;SDS011;576;48.418;10.074;2022-10-10T05:55:22;3.80;;;2.90;;
1174;SDS011;576;48.418;10.074;2022-10-10T05:57:51;4.40;;;3.20;;
1174;SDS011;576;48.418;10.074;2022-10-10T06:00:19;3.37;;;3.17;;
1174;SDS011;576;48.418;10.074;2022-10-10T06:02:49;5.13;;;3.60;;
1174;SDS011;576;48.418;10.074;2022-10-10T06:05:17;3.20;;;2.63;;
1174;SDS011;576;48.418;10.074;2022-10-10T06:07:45;3.77;;;2.97;;
1174;SDS011;576;48.418;10.074;2022-10-10T06:10:35;3.13;;;2.83;;
1174;SDS011;576;48.418;10.074;2022-10-10T06:13:05;3.87;;;3.50;;
1174;SDS011;576;48.418;10.074;2022-10-10T06:15:33;4.47;;;3.00;;
1174;SDS011;576;48.418;10.074;2022-10-10T06:18:02;3.67;;;3.37;;
1174;SDS011;576;48.418;10.074;2022-10-10T06:20:32;3.27;;;3.07;;
1174;SDS011;576;48.418;10.074;2022-10-10T06:23:01;2.80;;;2.60;;
1174;SDS011;576;48.418;10.074;2022-10-10T06:25:31;3.20;;;3.00;;
1174;SDS011;576;48.418;10.074;2022-10-10T06:28:09;3.60;;;2.90;;
1174;SDS011;576;48.418;10.074;2022-10-10T06:30:38;3.70;;;3.07;;
1174;SDS011;576;48.418;10.074;2022-10-10T06:33:07;3.50;;;3.20;;
1174;SDS011;576;48.418;10.074;2022-10-10T06:35:39;5.50;;;3.03;;
1174;SDS011;576;48.418;10.074;2022-10-10T06:38:08;3.23;;;3.03;;
1174;SDS011;576;48.418;10.074;2022-10-10T06:40:37;3.50;;;3.30;;
1174;SDS011;576;48.418;10.074;2022-10-10T06:43:06;3.43;;;3.13;;
1174;SDS011;576;48.418;10.074;2022-10-10T06:45:37;3.30;;;3.03;;
1174;SDS011;576;48.418;10.074;2022-10-10T06:48:07;3.27;;;3.07;;
1174;SDS011;576;48.418;10.074;2022-10-10T06:50:35;3.40;;;3.10;;
1174;SDS011;576;48.418;10.074;2022-10-10T06:53:04;3.10;;;2.90;;
1174;SDS011;576;48.418;10.074;2022-10-10T06:55:33;3.40;;;3.20;;
1174;SDS011;576;48.418;10.074;2022-10-10T06:58:01;3.37;;;3.17;;
1174;SDS011;576;48.418;10.074;2022-10-10T07:00:30;3.53;;;3.27;;
1174;SDS011;576;48.418;10.074;2022-10-10T07:02:58;3.17;;;2.97;;
1174;SDS011;576;48.418;10.074;2022-10-10T07:05:26;3.20;;;2.93;;
1174;SDS011;576;48.418;10.074;2022-10-10T07:07:54;3.63;;;3.00;;
1174;SDS011;576;48.418;10.074;2022-10-10T07:10:23;3.63;;;3.43;;
1174;SDS011;576;48.418;10.074;2022-10-10T07:12:51;3.70;;;3.40;;
1174;SDS011;576;48.418;10.074;2022-10-10T07:15:19;3.47;;;3.07;;
1174;SDS011;576;48.418;10.074;2022-10-10T07:17:50;3.43;;;3.23;;
1174;SDS011;576;48.418;10.074;2022-10-10T07:20:23;2.87;;;2.67;;
1174;SDS011;576;48.418;10.074;2022-10-10T07:22:52;3.40;;;3.10;;
1174;SDS011;576;48.418;10.074;2022-10-10T07:25:20;2.90;;;2.67;;
1174;SDS011;576;48.418;10.074;2022-10-10T07:27:48;3.77;;;3.07;;
1174;SDS011;576;48.418;10.074;2022-10-10T07:30:16;2.90;;;2.70;;
1174;SDS011;576;48.418;10.074;2022-10-10T07:32:45;3.20;;;2.90;;
1174;SDS011;576;48.418;10.074;2022-10-10T07:35:15;2.80;;;2.50;;
1174;SDS011;576;48.418;10.074;2022-10-10T07:37:43;3.07;;;2.87;;
1174;SDS011;576;48.418;10.074;2022-10-10T07:40:11;3.20;;;3.00;;
1174;SDS011;576;48.418;10.074;2022-10-10T07:42:40;2.93;;;2.77;;
1174;SDS011;576;48.418;10.074;2022-10-10T07:45:08;3.77;;;3.47;;
1174;SDS011;576;48.418;10.074;2022-10-10T07:47:37;3.27;;;3.07;;
1174;SDS011;576;48.418;10.074;2022-10-10T07:50:06;3.10;;;2.90;;
1174;SDS011;576;48.418;10.074;2022-10-10T07:52:38;3.80;;;3.60;;
1174;SDS011;576;48.418;10.074;2022-10-10T07:55:07;3.13;;;2.83;;
1174;SDS011;576;48.418;10.074;2022-10-10T07:57:36;3.37;;;3.17;;
1174;SDS011;576;48.418;10.074;2022-10-10T08:00:04;5.70;;;3.57;;
1174;SDS011;576;48.418;10.074;2022-10-10T08:02:37;3.33;;;3.03;;
1174;SDS011;576;48.418;10.074;2022-10-10T08:05:05;3.17;;;2.97;;
1174;SDS011;576;48.418;10.074;2022-10-10T08:07:34;3.37;;;3.07;;
1174;SDS011;576;48.418;10.074;2022-10-10T08:10:03;3.30;;;3.10;;
1174;SDS011;576;48.418;10.074;2022-10-10T08:12:33;3.60;;;3.30;;
1174;SDS011;576;48.418;10.074;2022-10-10T08:15:02;2.90;;;2.70;;
1174;SDS011;576;48.418;10.074;2022-10-10T08:17:31;3.20;;;2.90;;
1174;SDS011;576;48.418;10.074;2022-10-10T08:19:59;3.23;;;3.03;;
1174;SDS011;576;48.418;10.074;2022-10-10T08:22:27;3.17;;;2.87;;
1174;SDS011;576;48.418;10.074;2022-10-10T08:24:55;2.60;;;2.50;;
1174;SDS011;576;48.418;10.074;2022-10-10T08:27:25;2.87;;;2.67;;
1174;SDS011;576;48.418;10.074;2022-10-10T08:29:53;3.17;;;2.97;;
1174;SDS011;576;48.418;10.074;2022-10-10T08:32:21;3.00;;;2.80;;
1174;SDS011;576;48.418;10.074;2022-10-10T08:34:49;3.47;;;3.23;;
1174;SDS011;576;48.418;10.074;2022-10-10T08:37:18;6.20;;;3.30;;
1174;SDS011;576;48.418;10.074;2022-10-10T08:39:51;2.50;;;2.40;;
1174;SDS011;576;48.418;10.074;2022-10-10T08:42:21;3.17;;;2.97;;
1174;SDS011;576;48.418;10.074;2022-10-10T08:44:56;3.73;;;3.43;;
1174;SDS011;576;48.418;10.074;2022-10-10T08:47:29;3.47;;;2.80;;
1174;SDS011;576;48.418;10.074;2022-10-10T08:50:04;3.37;;;3.17;;
1174;SDS011;576;48.418;10.074;2022-10-10T08:52:39;2.90;;;2.70;;
1174;SDS011;576;48.418;10.074;2022-10-10T08:55:12;3.07;;;2.87;;
1174;SDS011;576;48.418;10.074;2022-10-10T08:57:47;3.10;;;2.90;;
1174;SDS011;576;48.418;10.074;2022-10-10T09:00:18;3.17;;;2.97;;
1174;SDS011;576;48.418;10.074;2022-10-10T09:02:49;3.20;;;3.00;;
1174;SDS011;576;48.418;10.074;2022-10-10T09:05:26;3.00;;;2.80;;
1174;SDS011;576;48.418;10.074;2022-10-10T09:08:11;3.23;;;3.03;;
1174;SDS011;576;48.418;10.074;2022-10-10T09:10:53;3.33;;;2.60;;
1174;SDS011;576;48.418;10.074;2022-10-10T09:13:29;3.07;;;2.87;;
1174;SDS011;576;48.418;10.074;2022-10-10T09:16:01;3.13;;;2.93;;
1174;SDS011;576;48.418;10.074;2022-10-10T09:18:48;2.90;;;2.70;;
1174;SDS011;576;48.418;10.074;2022-10-10T09:21:25;3.13;;;2.90;;
1174;SDS011;576;48.418;10.074;2022-10-10T09:23:58;2.70;;;2.60;;
1174;SDS011;576;48.418;10.074;2022-10-10T09:26:33;2.60;;;2.43;;
1174;SDS011;576;48.418;10.074;2022-10-10T09:29:11;3.33;;;3.03;;
1174;SDS011;576;48.418;10.074;2022-10-10T09:31:52;3.13;;;2.83;;
1174;SDS011;576;48.418;10.074;2022-10-10T09:34:27;3.20;;;3.00;;
1174;SDS011;576;48.418;10.074;2022-10-10T09:37:00;3.20;;;2.77;;
1174;SDS011;576;48.418;10.074;2022-10-10T09:39:33;3.07;;;2.80;;
1174;SDS011;576;48.418;10.074;2022-10-10T09:42:04;3.37;;;3.17;;
1174;SDS011;576;48.418;10.074;2022-10-10T09:44:38;3.00;;;2.80;;
1174;SDS011;576;48.418;10.074;2022-10-10T09:47:08;5.27;;;3.00;;
1174;SDS011;576;48.418;10.074;2022-10-10T09:49:39;3.33;;;2.93;;
1174;SDS011;576;48.418;10.074;2022-10-10T09:52:14;3.13;;;2.83;;
1174;SDS011;576;48.418;10.074;2022-10-10T09:54:54;3.07;;;2.80;;
1174;SDS011;576;48.418;10.074;2022-10-10T09:57:27;2.63;;;2.43;;
1174;SDS011;576;48.418;10.074;2022-10-10T10:00:02;3.03;;;2.80;;
1174;SDS011;576;48.418;10.074;2022-10-10T10:03:02;2.70;;;2.50;;
1174;SDS011;576;48.418;10.074;2022-10-10T10:05:38;3.10;;;2.90;;
1174;SDS011;576;48.418;10.074;2022-10-10T10:08:18;3.43;;;3.20;;
1174;SDS011;576;48.418;10.074;2022-10-10T10:10:49;2.90;;;2.70;;
1174;SDS011;576;48.418;10.074;2022-10-10T10:13:18;2.60;;;2.40;;
1174;SDS011;576;48.418;10.074;2022-10-10T10:15:53;4.50;;;3.20;;
1174;SDS011;576;48.418;10.074;2022-10-10T10:18:27;3.30;;;3.00;;
1174;SDS011;576;48.418;10.074;2022-10-10T10:21:10;2.90;;;2.60;;
1174;SDS011;576;48.418;10.074;2022-10-10T10:23:41;3.00;;;2.80;;
1174;SDS011;576;48.418;10.074;2022-10-10T10:26:14;2.67;;;2.53;;
1174;SDS011;576;48.418;10.074;2022-10-10T10:28:46;3.60;;;3.30;;
1174;SDS011;576;48.418;10.074;2022-10-10T10:31:20;3.30;;;3.10;;
1174;SDS011;576;48.418;10.074;2022-10-10T10:34:00;3.00;;;2.80;;
1174;SDS011;576;48.418;10.074;2022-10-10T10:36:40;2.63;;;2.43;;
1174;SDS011;576;48.418;10.074;2022-10-10T10:39:19;2.90;;;2.70;;
1174;SDS011;576;48.418;10.074;2022-10-10T10:42:01;3.60;;;3.30;;
1174;SDS011;576;48.418;10.074;2022-10-10T10:44:40;3.90;;;3.63;;
1174;SDS011;576;48.418;10.074;2022-10-10T10:47:21;2.83;;;2.63;;
1174;SDS011;576;48.418;10.074;2022-10-10T10:50:02;3.50;;;3.20;;
1174;SDS011;576;48.418;10.074;2022-10-10T10:52:44;3.40;;;3.10;;
1174;SDS011;576;48.418;10.074;2022-10-10T10:55:24;3.50;;;3.20;;
1174;SDS011;576;48.418;10.074;2022-10-10T10:58:18;3.00;;;2.80;;
1174;SDS011;576;48.418;10.074;2022-10-10T11:01:32;3.63;;;3.17;;
1174;SDS011;576;48.418;10.074;2022-10-10T11:04:26;3.20;;;3.00;;
1174;SDS011;576;48.418;10.074;2022-10-10T11:07:41;2.90;;;2.70;;
1174;SDS011;576;48.418;10.074;2022-10-10T11:10:17;3.37;;;3.17;;
1174;SDS011;576;48.418;10.074;2022-10-10T11:12:53;3.60;;;3.40;;
1174;SDS011;576;48.418;10.074;2022-10-10T11:15:31;3.40;;;3.10;;
1174;SDS011;576;48.418;10.074;2022-10-10T11:18:26;3.53;;;3.30;;
1174;SDS011;576;48.418;10.074;2022-10-10T11:21:01;3.37;;;3.13;;
1174;SDS011;576;48.418;10.074;2022-10-10T11:23:34;4.03;;;3.73;;
1174;SDS011;576;48.418;10.074;2022-10-10T11:26:07;3.30;;;3.00;;
1174;SDS011;576;48.418;10.074;2022-10-10T11:28:41;4.17;;;3.53;;
1174;SDS011;576;48.418;10.074;2022-10-10T11:31:15;4.00;;;3.30;;
1174;SDS011;576;48.418;10.074;2022-10-10T11:33:47;3.13;;;2.93;;
1174;SDS011;576;48.418;10.074;2022-10-10T11:36:25;2.90;;;2.70;;
1174;SDS011;576;48.418;10.074;2022-10-10T11:38:58;4.63;;;4.23;;
1174;SDS011;576;48.418;10.074;2022-10-10T11:41:31;3.43;;;3.13;;
1174;SDS011;576;48.418;10.074;2022-10-10T11:44:04;3.00;;;2.80;;
1174;SDS011;576;48.418;10.074;2022-10-10T11:46:39;2.70;;;2.50;;
1174;SDS011;576;48.418;10.074;2022-10-10T11:49:13;3.60;;;2.97;;
1174;SDS011;576;48.418;10.074;2022-10-10T11:51:56;3.00;;;2.80;;
1174;SDS011;576;48.418;10.074;2022-10-10T11:54:58;5.20;;;2.60;;
1174;SDS011;576;48.418;10.074;2022-10-10T11:57:33;3.47;;;3.27;;
1174;SDS011;576;48.418;10.074;2022-10-10T12:00:08;2.40;;;2.30;;
1174;SDS011;576;48.418;10.074;2022-10-10T12:02:39;3.13;;;2.93;;
1174;SDS011;576;48.418;10.074;2022-10-10T12:05:16;4.43;;;2.90;;
1174;SDS011;576;48.418;10.074;2022-10-10T12:07:55;3.53;;;3.23;;
1174;SDS011;576;48.418;10.074;2022-10-10T12:10:31;3.10;;;2.90;;
1174;SDS011;576;48.418;10.074;2022-10-10T12:13:09;3.13;;;2.93;;
1174;SDS011;576;48.418;10.074;2022-10-10T12:15:50;3.73;;;3.43;;
1174;SDS011;576;48.418;10.074;2022-10-10T12:18:24;2.50;;;2.30;;
1174;SDS011;576;48.418;10.074;2022-10-10T12:21:02;2.70;;;2.30;;
1174;SDS011;576;48.418;10.074;2022-10-10T12:23:36;5.23;;;3.17;;
1174;SDS011;576;48.418;10.074;2022-10-10T12:26:07;2.80;;;2.60;;
1174;SDS011;576;48.418;10.074;2022-10-10T12:28:56;4.27;;;3.27;;
1174;SDS011;576;48.418;10.074;2022-10-10T12:31:28;2.63;;;2.43;;
1174;SDS011;576;48.418;10.074;2022-10-10T12:36:53;2.70;;;2.50;;
1174;SDS011;576;48.418;10.074;2022-10-10T12:39:35;3.50;;;3.30;;
1174;SDS011;576;48.418;10.074;2022-10-10T12:44:56;2.60;;;2.40;;
1174;SDS011;576;48.418;10.074;2022-10-10T12:47:29;2.90;;;2.60;;
1174;SDS011;576;48.418;10.074;2022-10-10T12:50:29;2.67;;;2.47;;
1174;SDS011;576;48.418;10.074;2022-10-10T12:53:00;2.73;;;2.53;;
1174;SDS011;576;48.418;10.074;2022-10-10T12:55:38;2.73;;;2.53;;
1174;SDS011;576;48.418;10.074;2022-10-10T12:58:12;2.90;;;2.70;;
1174;SDS011;576;48.418;10.074;2022-10-10T13:00:53;3.60;;;2.70;;
1174;SDS011;576;48.418;10.074;2022-10-10T13:03:24;2.80;;;2.60;;
1174;SDS011;576;48.418;10.074;2022-10-10T13:05:57;6.03;;;2.13;;
1174;SDS011;576;48.418;10.074;2022-10-10T13:08:31;2.80;;;2.70;;
1174;SDS011;576;48.418;10.074;2022-10-10T13:11:06;10.10;;;6.30;;
1174;SDS011;576;48.418;10.074;2022-10-10T13:13:36;6.60;;;6.00;;
1174;SDS011;576;48.418;10.074;2022-10-10T13:16:06;6.07;;;5.57;;
1174;SDS011;576;48.418;10.074;2022-10-10T13:18:38;6.37;;;5.77;;
1174;SDS011;576;48.418;10.074;2022-10-10T13:21:09;8.90;;;7.30;;
1174;SDS011;576;48.418;10.074;2022-10-10T13:23:40;7.33;;;6.63;;
1174;SDS011;576;48.418;10.074;2022-10-10T13:26:35;8.20;;;7.50;;
1174;SDS011;576;48.418;10.074;2022-10-10T13:29:10;7.23;;;6.40;;
1174;SDS011;576;48.418;10.074;2022-10-10T13:31:47;7.10;;;6.50;;
1174;SDS011;576;48.418;10.074;2022-10-10T13:34:17;10.43;;;9.20;;
1174;SDS011;576;48.418;10.074;2022-10-10T13:36:53;10.60;;;9.70;;
1174;SDS011;576;48.418;10.074;2022-10-10T13:39:23;12.00;;;10.53;;
1174;SDS011;576;48.418;10.074;2022-10-10T13:41:54;9.07;;;8.17;;
1174;SDS011;576;48.418;10.074;2022-10-10T13:44:23;9.87;;;8.33;;
1174;SDS011;576;48.418;10.074;2022-10-10T13:46:57;7.30;;;6.60;;
1174;SDS011;576;48.418;10.074;2022-10-10T13:49:26;9.10;;;7.27;;
1174;SDS011;576;48.418;10.074;2022-10-10T13:51:59;8.60;;;7.23;;
1174;SDS011;576;48.418;10.074;2022-10-10T13:54:39;10.00;;;8.27;;
1174;SDS011;576;48.418;10.074;2022-10-10T13:57:12;8.10;;;7.10;;
1174;SDS011;576;48.418;10.074;2022-10-10T13:59:44;9.60;;;6.97;;
1174;SDS011;576;48.418;10.074;2022-10-10T14:02:16;7.63;;;6.93;;
1174;SDS011;576;48.418;10.074;2022-10-10T14:04:50;9.10;;;7.17;;
1174;SDS011;576;48.418;10.074;2022-10-10T14:07:21;6.63;;;6.00;;
1174;SDS011;576;48.418;10.074;2022-10-10T14:09:52;5.90;;;5.37;;
1174;SDS011;576;48.418;10.074;2022-10-10T14:12:26;7.53;;;6.57;;
1174;SDS011;576;48.418;10.074;2022-10-10T14:14:58;8.00;;;6.53;;
1174;SDS011;576;48.418;10.074;2022-10-10T14:17:27;5.37;;;4.97;;
1174;SDS011;576;48.418;10.074;2022-10-10T14:19:56;6.20;;;4.97;;
1174;SDS011;576;48.418;10.074;2022-10-10T14:22:24;5.33;;;4.83;;
1174;SDS011;576;48.418;10.074;2022-10-10T14:24:52;5.60;;;5.10;;
1174;SDS011;576;48.418;10.074;2022-10-10T14:27:21;6.50;;;5.30;;
1174;SDS011;576;48.418;10.074;2022-10-10T14:29:52;6.93;;;6.33;;
1174;SDS011;576;48.418;10.074;2022-10-10T14:32:22;5.90;;;5.37;;
1174;SDS011;576;48.418;10.074;2022-10-10T14:34:52;8.00;;;4.63;;
1174;SDS011;576;48.418;10.074;2022-10-10T14:37:22;6.13;;;4.60;;
1174;SDS011;576;48.418;10.074;2022-10-10T14:39:51;5.07;;;4.53;;
1174;SDS011;576;48.418;10.074;2022-10-10T14:42:21;5.37;;;4.87;;
1174;SDS011;576;48.418;10.074;2022-10-10T14:44:51;6.37;;;4.43;;
1174;SDS011;576;48.418;10.074;2022-10-10T14:47:20;5.30;;;4.80;;
1174;SDS011;576;48.418;10.074;2022-10-10T14:49:50;4.90;;;4.20;;
1174;SDS011;576;48.418;10.074;2022-10-10T14:52:19;5.47;;;4.93;;
1174;SDS011;576;48.418;10.074;2022-10-10T14:54:47;7.20;;;4.80;;
1174;SDS011;576;48.418;10.074;2022-10-10T14:57:15;5.03;;;4.40;;
1174;SDS011;576;48.418;10.074;2022-10-10T14:59:45;5.20;;;4.70;;
1174;SDS011;576;48.418;10.074;2022-10-10T15:02:18;4.53;;;4.00;;
1174;SDS011;576;48.418;10.074;2022-10-10T15:04:47;7.43;;;3.70;;
1174;SDS011;576;48.418;10.074;2022-10-10T15:07:16;12.00;;;5.43;;
1174;SDS011;576;48.418;10.074;2022-10-10T15:09:45;4.87;;;4.50;;
1174;SDS011;576;48.418;10.074;2022-10-10T15:12:35;7.50;;;4.73;;
1174;SDS011;576;48.418;10.074;2022-10-10T15:15:05;9.77;;;4.63;;
1174;SDS011;576;48.418;10.074;2022-10-10T15:17:35;5.80;;;3.83;;
1174;SDS011;576;48.418;10.074;2022-10-10T15:20:04;4.93;;;4.30;;
1174;SDS011;576;48.418;10.074;2022-10-10T15:22:34;4.60;;;4.00;;
1174;SDS011;576;48.418;10.074;2022-10-10T15:25:03;5.07;;;4.63;;
1174;SDS011;576;48.418;10.074;2022-10-10T15:27:32;5.60;;;4.10;;
1174;SDS011;576;48.418;10.074;2022-10-10T15:30:01;5.67;;;4.23;;
1174;SDS011;576;48.418;10.074;2022-10-10T15:32:30;5.80;;;4.40;;
1174;SDS011;576;48.418;10.074;2022-10-10T15:34:59;6.90;;;4.30;;
1174;SDS011;576;48.418;10.074;2022-10-10T15:37:27;5.40;;;4.40;;
1174;SDS011;576;48.418;10.074;2022-10-10T15:39:55;6.47;;;3.90;;
1174;SDS011;576;48.418;10.074;2022-10-10T15:42:23;5.47;;;4.90;;
1174;SDS011;576;48.418;10.074;2022-10-10T15:44:52;4.70;;;4.00;;
1174;SDS011;576;48.418;10.074;2022-10-10T15:47:20;5.50;;;4.10;;
1174;SDS011;576;48.418;10.074;2022-10-10T15:49:48;3.93;;;3.63;;
1174;SDS011;576;48.418;10.074;2022-10-10T15:52:18;8.07;;;3.63;;